Nearby METAR Reports

 

KSJC - San Jose, California, USA
Distance from station: NE 14km
Updated: 27/07/2021 10:53
Few Clouds
Few Clouds
 Wind from calm
Wind: Calm
Temperature: 24°C
Dew Point: 14°C
Humidity: 54%
Barometer: 1015.9 hPa
Clouds: Few Clouds
Visibility: 16 km
Cloud details: Few Clouds 1829 m
Few Clouds 2743 m
Few Clouds 4572 m
2021/07/27 17:53 KSJC 271753Z 00000KT 10SM FEW060 FEW090 FEW150 24/14 A3000 RMK AO2 SLP156 T02390139 10239 20172 50006
KNUQ - Moffett Nas/Mtn, California, USA
Distance from station: N 14km
Updated: 27/07/2021 11:35
Clear
Clear
 Wind from N
Wind: N 13 km/h
Temperature: 23°C
Dew Point: 16°C
Humidity: 65%
Barometer: 1015.9 hPa
Clouds: Clear
Visibility: 16 km
2021/07/27 18:35 KNUQ 271835Z AUTO 35007KT 10SM CLR 23/16 A3000 RMK AO2
 
KPAO - Palo Alto, California, USA
Distance from station: NNW 23km
Updated: 27/07/2021 11:47
Few Clouds
Few Clouds
 Wind from N
Wind: N 15 km/h
Temperature: 22°C
Dew Point: 16°C
Humidity: 69%
Barometer: 1015.9 hPa
Clouds: Few Clouds
Visibility: 16 km
Cloud details: Few Clouds 3048 m
2021/07/27 18:47 KPAO 271847Z 35008KT 10SM FEW100 22/16 A3000
KRHV - San Jose/Reid, California, USA
Distance from station: ENE 19km
Updated: 27/07/2021 10:47
Partly cloudy
Partly cloudy
 Wind from NW
Wind: NW 9 km/h
Temperature: 26°C
Dew Point: 14°C
Humidity: 48%
Barometer: 1015.9 hPa
Clouds: Partly cloudy
Visibility: 16 km
Cloud details: Partly cloudy 2743 m
2021/07/27 17:47 KRHV 271747Z 31005KT 10SM SCT090 26/14 A3000
 
KOAK - Oakland, California, USA
Distance from station: NNW 50km
Updated: 27/07/2021 10:53
Mostly cloudy
Mostly cloudy
 Wind from WNW
Wind: WNW 15 km/h
Temperature: 21°C
Dew Point: 14°C
Humidity: 64%
Barometer: 1016.3 hPa
Clouds: Mostly cloudy
Visibility: 16 km
Cloud details: Few Clouds 3658 m
Partly cloudy 4267 m
Mostly cloudy 6096 m
2021/07/27 17:53 KOAK 271753Z 30008KT 10SM FEW120 SCT140 BKN200 21/14 A3001 RMK AO2 SLP162 T02060139 10206 20139 51007
KSQL - San Carlos Airpo, California, USA
Distance from station: NW 34km
Updated: 27/07/2021 10:47
Partly cloudy
Partly cloudy
 Wind from N
Wind: N 9 km/h
Temperature: 22°C
Dew Point: 16°C
Humidity: 69%
Barometer: 1016.3 hPa
Clouds: Partly cloudy
Visibility: 16 km
Cloud details: Partly cloudy 6096 m
2021/07/27 17:47 KSQL 271747Z 01005KT 10SM SCT200 22/16 A3001
 
KSFO - San Francisco, California, USA
Distance from station: NW 49km
Updated: 27/07/2021 10:56
Partly cloudy
Partly cloudy
 Wind from NNE
Wind: NNE 9 km/h
Temperature: 20°C
Dew Point: 14°C
Humidity: 69%
Barometer: 1015.9 hPa
Clouds: Partly cloudy
Visibility: 16 km
Cloud details: Partly cloudy 4267 m
Partly cloudy 6096 m
2021/07/27 17:56 KSFO 271756Z 03005KT 10SM SCT140 SCT200 20/14 A3000 RMK A02 SLP159 T02000144 10200 20156 51006
KE16 - San Martin, California, USA
Distance from station: ESE 43km
Updated: 27/07/2021 11:35
Clear
Clear
 Wind from calm
Wind: Calm
Temperature: 28°C
Dew Point: 9°C
Humidity: 30%
Barometer: 1015.9 hPa
Clouds: Clear
Visibility: 16 km
2021/07/27 18:35 KE16 271835Z AUTO 00000KT 10SM CLR 28/09 A3000 RMK AO2 PWINO PNO
 
KWVI - Watsonville, California, USA
Distance from station: SSE 44km
Updated: 27/07/2021 10:53
Clear
Clear
 Wind from SW
Wind: SW 13 km/h
Barometer: 1016.6 hPa
Clouds: Clear
Visibility: 16 km
2021/07/27 17:53 KWVI 271753Z AUTO 23007KT 10SM CLR A3002 RMK AO2 SLPNO 10228 20144 51008 $
KHAF - Half Moon Bay, California, USA
Distance from station: WNW 50km
Updated: 09/07/2021 07:35
NOT Current
Light rain, Clear
Light rain, Clear
 
Temperature: 13°C
Dew Point: 12°C
Humidity: 94%
Barometer: 1012.9 hPa
Summary: Light rain
Clouds: Clear
Visibility: 6 km
2021/07/09 14:35 KHAF 091435Z AUTO 4SM -RA CLR 13/12 A2991 RMK AO2
 
KHWD - Hayward, California, USA
Distance from station: N 44km
Updated: 27/07/2021 10:54
Clear
Clear
 Wind from WNW
Wind: WNW 13 km/h
Temperature: 23°C
Dew Point: 15°C
Humidity: 61%
Barometer: 1015.9 hPa
Clouds: Clear
Visibility: 16 km
2021/07/27 17:54 KHWD 271754Z 29007KT 10SM CLR 23/15 A3000 RMK AO2 SLP167 T02280150 10228 20150 51006
KLVK - Livermore, California, USA
Distance from station: NNE 51km
Updated: 27/07/2021 10:53
Clear
Clear
 Wind from calm
Wind: Calm
Temperature: 28°C
Dew Point: 6°C
Humidity: 25%
Barometer: 1015.6 hPa
Clouds: Clear
Visibility: 16 km
2021/07/27 17:53 KLVK 271753Z 00000KT 10SM CLR 28/06 A2999 RMK AO2 SLP149 T02780061 10283 20178 51005